Terminal Aerodrome Forecast
Issued by NWS

Home | Current Version | Previous Version | Text Only | Print | Product List | Glossary On
Versions: 1 2 3 4 5 6 7 8 9 10 11 12 13 14 15 16 17 18 19 20 21 22 23 24 25 26 27 28 29 30 31 32 33 34 35 36
000
FTUS45 KBOU 270718 AAA
TAFBJC
TAF AMD
KBJC 270718Z 2707/2806 33007KT P6SM SCT020 BKN035
     FM271000 05007KT P6SM VCFG SCT010 BKN020
     FM271600 02009KT P6SM SCT025 BKN045
     FM271900 02012KT P6SM VCTS BKN030CB OVC060
      TEMPO 2719/2723 5SM SHRA BKN020
     FM272300 02010KT P6SM SCT030 BKN060
     FM280200 33006KT P6SM BKN060=

USA.gov is the U.S. government's official web portal to all federal, state and local government web resources and services.